sensor_id;sensor_type;location;lat;lon;timestamp;P1;durP1;ratioP1;P2;durP2;ratioP2
52530;SDS011;38441;52.894;6.040;2023-04-16T00:01:37;40.92;;;17.48;;
52530;SDS011;38441;52.894;6.040;2023-04-16T00:04:03;45.78;;;17.35;;
52530;SDS011;38441;52.894;6.040;2023-04-16T00:06:29;43.40;;;17.33;;
52530;SDS011;38441;52.894;6.040;2023-04-16T00:08:56;38.63;;;16.88;;
52530;SDS011;38441;52.894;6.040;2023-04-16T00:11:22;40.97;;;16.42;;
52530;SDS011;38441;52.894;6.040;2023-04-16T00:13:48;46.33;;;19.85;;
52530;SDS011;38441;52.894;6.040;2023-04-16T00:16:14;47.38;;;17.75;;
52530;SDS011;38441;52.894;6.040;2023-04-16T00:18:40;45.45;;;18.45;;
52530;SDS011;38441;52.894;6.040;2023-04-16T00:21:06;46.92;;;18.83;;
52530;SDS011;38441;52.894;6.040;2023-04-16T00:23:32;38.85;;;17.10;;
52530;SDS011;38441;52.894;6.040;2023-04-16T00:25:58;52.28;;;19.35;;
52530;SDS011;38441;52.894;6.040;2023-04-16T00:28:24;49.25;;;17.05;;
52530;SDS011;38441;52.894;6.040;2023-04-16T00:30:51;46.90;;;18.83;;
52530;SDS011;38441;52.894;6.040;2023-04-16T00:33:17;37.63;;;16.05;;
52530;SDS011;38441;52.894;6.040;2023-04-16T00:35:44;49.83;;;17.88;;
52530;SDS011;38441;52.894;6.040;2023-04-16T00:38:10;46.60;;;18.65;;
52530;SDS011;38441;52.894;6.040;2023-04-16T00:40:36;45.13;;;17.83;;
52530;SDS011;38441;52.894;6.040;2023-04-16T00:43:02;50.20;;;19.38;;
52530;SDS011;38441;52.894;6.040;2023-04-16T00:45:28;49.05;;;19.40;;
52530;SDS011;38441;52.894;6.040;2023-04-16T00:47:55;42.72;;;18.30;;
52530;SDS011;38441;52.894;6.040;2023-04-16T00:50:22;46.45;;;18.60;;
52530;SDS011;38441;52.894;6.040;2023-04-16T00:52:48;44.55;;;19.15;;
52530;SDS011;38441;52.894;6.040;2023-04-16T00:55:14;47.45;;;17.73;;
52530;SDS011;38441;52.894;6.040;2023-04-16T00:57:42;43.55;;;18.17;;
52530;SDS011;38441;52.894;6.040;2023-04-16T01:00:08;47.05;;;19.58;;
52530;SDS011;38441;52.894;6.040;2023-04-16T01:02:34;43.47;;;18.77;;
52530;SDS011;38441;52.894;6.040;2023-04-16T01:05:01;48.53;;;17.92;;
52530;SDS011;38441;52.894;6.040;2023-04-16T01:07:27;45.75;;;18.02;;
52530;SDS011;38441;52.894;6.040;2023-04-16T01:09:53;37.70;;;16.83;;
52530;SDS011;38441;52.894;6.040;2023-04-16T01:12:19;35.10;;;17.08;;
52530;SDS011;38441;52.894;6.040;2023-04-16T01:14:45;48.25;;;19.35;;
52530;SDS011;38441;52.894;6.040;2023-04-16T01:17:11;41.25;;;16.63;;
52530;SDS011;38441;52.894;6.040;2023-04-16T01:19:37;42.85;;;18.73;;
52530;SDS011;38441;52.894;6.040;2023-04-16T01:22:03;46.83;;;17.95;;
52530;SDS011;38441;52.894;6.040;2023-04-16T01:24:29;39.63;;;18.67;;
52530;SDS011;38441;52.894;6.040;2023-04-16T01:26:58;43.63;;;17.50;;
52530;SDS011;38441;52.894;6.040;2023-04-16T01:29:24;45.28;;;18.30;;
52530;SDS011;38441;52.894;6.040;2023-04-16T01:31:51;39.20;;;17.30;;
52530;SDS011;38441;52.894;6.040;2023-04-16T01:34:17;45.38;;;17.50;;
52530;SDS011;38441;52.894;6.040;2023-04-16T01:36:43;48.17;;;18.00;;
52530;SDS011;38441;52.894;6.040;2023-04-16T01:39:08;40.60;;;17.92;;
52530;SDS011;38441;52.894;6.040;2023-04-16T01:41:38;42.63;;;18.13;;
52530;SDS011;38441;52.894;6.040;2023-04-16T01:44:04;41.78;;;17.63;;
52530;SDS011;38441;52.894;6.040;2023-04-16T01:46:31;50.17;;;18.45;;
52530;SDS011;38441;52.894;6.040;2023-04-16T01:48:58;40.38;;;18.27;;
52530;SDS011;38441;52.894;6.040;2023-04-16T01:51:24;46.97;;;18.27;;
52530;SDS011;38441;52.894;6.040;2023-04-16T01:53:51;43.22;;;18.75;;
52530;SDS011;38441;52.894;6.040;2023-04-16T01:56:17;44.83;;;18.38;;
52530;SDS011;38441;52.894;6.040;2023-04-16T01:58:42;40.30;;;18.88;;
52530;SDS011;38441;52.894;6.040;2023-04-16T02:01:10;37.88;;;17.48;;
52530;SDS011;38441;52.894;6.040;2023-04-16T02:03:36;44.45;;;18.38;;
52530;SDS011;38441;52.894;6.040;2023-04-16T02:06:02;37.60;;;18.45;;
52530;SDS011;38441;52.894;6.040;2023-04-16T02:08:28;39.22;;;17.40;;
52530;SDS011;38441;52.894;6.040;2023-04-16T02:10:54;41.67;;;19.50;;
52530;SDS011;38441;52.894;6.040;2023-04-16T02:13:20;36.10;;;17.55;;
52530;SDS011;38441;52.894;6.040;2023-04-16T02:15:47;39.17;;;17.15;;
52530;SDS011;38441;52.894;6.040;2023-04-16T02:18:14;34.72;;;17.88;;
52530;SDS011;38441;52.894;6.040;2023-04-16T02:20:44;38.80;;;17.70;;
52530;SDS011;38441;52.894;6.040;2023-04-16T02:23:10;35.65;;;17.75;;
52530;SDS011;38441;52.894;6.040;2023-04-16T02:25:42;41.20;;;17.92;;
52530;SDS011;38441;52.894;6.040;2023-04-16T02:28:10;32.88;;;16.48;;
52530;SDS011;38441;52.894;6.040;2023-04-16T02:30:37;33.85;;;17.88;;
52530;SDS011;38441;52.894;6.040;2023-04-16T02:33:04;31.58;;;17.13;;
52530;SDS011;38441;52.894;6.040;2023-04-16T02:35:34;30.48;;;16.80;;
52530;SDS011;38441;52.894;6.040;2023-04-16T02:38:01;30.02;;;16.65;;
52530;SDS011;38441;52.894;6.040;2023-04-16T02:40:28;31.73;;;17.48;;
52530;SDS011;38441;52.894;6.040;2023-04-16T02:42:54;35.17;;;17.67;;
52530;SDS011;38441;52.894;6.040;2023-04-16T02:45:20;35.78;;;17.58;;
52530;SDS011;38441;52.894;6.040;2023-04-16T02:47:46;33.30;;;17.27;;
52530;SDS011;38441;52.894;6.040;2023-04-16T02:50:12;32.20;;;17.85;;
52530;SDS011;38441;52.894;6.040;2023-04-16T02:52:38;32.33;;;18.13;;
52530;SDS011;38441;52.894;6.040;2023-04-16T02:55:05;32.97;;;17.65;;
52530;SDS011;38441;52.894;6.040;2023-04-16T02:57:31;35.47;;;17.45;;
52530;SDS011;38441;52.894;6.040;2023-04-16T02:59:57;36.33;;;17.27;;
52530;SDS011;38441;52.894;6.040;2023-04-16T03:02:22;33.67;;;16.95;;
52530;SDS011;38441;52.894;6.040;2023-04-16T03:04:48;35.17;;;17.95;;
52530;SDS011;38441;52.894;6.040;2023-04-16T03:07:15;34.78;;;17.55;;
52530;SDS011;38441;52.894;6.040;2023-04-16T03:09:42;33.13;;;16.67;;
52530;SDS011;38441;52.894;6.040;2023-04-16T03:12:08;34.20;;;17.80;;
52530;SDS011;38441;52.894;6.040;2023-04-16T03:14:34;40.63;;;18.10;;
52530;SDS011;38441;52.894;6.040;2023-04-16T03:17:00;43.08;;;17.67;;
52530;SDS011;38441;52.894;6.040;2023-04-16T03:19:26;33.55;;;16.33;;
52530;SDS011;38441;52.894;6.040;2023-04-16T03:21:52;38.25;;;17.65;;
52530;SDS011;38441;52.894;6.040;2023-04-16T03:24:18;42.30;;;18.80;;
52530;SDS011;38441;52.894;6.040;2023-04-16T03:26:43;42.30;;;19.17;;
52530;SDS011;38441;52.894;6.040;2023-04-16T03:29:09;37.40;;;18.85;;
52530;SDS011;38441;52.894;6.040;2023-04-16T03:31:35;42.40;;;19.13;;
52530;SDS011;38441;52.894;6.040;2023-04-16T03:34:01;42.35;;;18.48;;
52530;SDS011;38441;52.894;6.040;2023-04-16T03:36:27;38.38;;;17.83;;
52530;SDS011;38441;52.894;6.040;2023-04-16T03:38:52;36.80;;;18.52;;
52530;SDS011;38441;52.894;6.040;2023-04-16T03:41:18;40.85;;;19.23;;
52530;SDS011;38441;52.894;6.040;2023-04-16T03:43:44;47.97;;;19.95;;
52530;SDS011;38441;52.894;6.040;2023-04-16T03:46:09;50.30;;;22.15;;
52530;SDS011;38441;52.894;6.040;2023-04-16T03:48:36;47.70;;;20.83;;
52530;SDS011;38441;52.894;6.040;2023-04-16T03:51:02;49.40;;;21.92;;
52530;SDS011;38441;52.894;6.040;2023-04-16T03:53:27;45.22;;;21.40;;
52530;SDS011;38441;52.894;6.040;2023-04-16T03:55:53;43.63;;;20.88;;
52530;SDS011;38441;52.894;6.040;2023-04-16T03:58:19;45.10;;;21.05;;
52530;SDS011;38441;52.894;6.040;2023-04-16T04:00:45;55.15;;;23.50;;
52530;SDS011;38441;52.894;6.040;2023-04-16T04:03:11;51.13;;;23.02;;
52530;SDS011;38441;52.894;6.040;2023-04-16T04:05:38;50.90;;;22.90;;
52530;SDS011;38441;52.894;6.040;2023-04-16T04:08:05;50.47;;;23.70;;
52530;SDS011;38441;52.894;6.040;2023-04-16T04:10:31;48.53;;;23.33;;
52530;SDS011;38441;52.894;6.040;2023-04-16T04:13:03;53.03;;;22.88;;
52530;SDS011;38441;52.894;6.040;2023-04-16T04:15:30;52.88;;;23.48;;
52530;SDS011;38441;52.894;6.040;2023-04-16T04:17:56;53.80;;;23.15;;
52530;SDS011;38441;52.894;6.040;2023-04-16T04:20:22;55.90;;;25.23;;
52530;SDS011;38441;52.894;6.040;2023-04-16T04:22:48;51.40;;;23.30;;
52530;SDS011;38441;52.894;6.040;2023-04-16T04:25:15;45.55;;;21.50;;
52530;SDS011;38441;52.894;6.040;2023-04-16T04:27:41;48.20;;;22.20;;
52530;SDS011;38441;52.894;6.040;2023-04-16T04:30:07;45.55;;;22.92;;
52530;SDS011;38441;52.894;6.040;2023-04-16T04:32:34;49.10;;;23.63;;
52530;SDS011;38441;52.894;6.040;2023-04-16T04:35:00;52.05;;;22.98;;
52530;SDS011;38441;52.894;6.040;2023-04-16T04:37:26;52.33;;;23.20;;
52530;SDS011;38441;52.894;6.040;2023-04-16T04:39:52;50.25;;;23.48;;
52530;SDS011;38441;52.894;6.040;2023-04-16T04:42:18;54.53;;;23.58;;
52530;SDS011;38441;52.894;6.040;2023-04-16T04:44:45;49.13;;;22.67;;
52530;SDS011;38441;52.894;6.040;2023-04-16T04:47:11;50.47;;;23.00;;
52530;SDS011;38441;52.894;6.040;2023-04-16T04:49:37;46.58;;;20.52;;
52530;SDS011;38441;52.894;6.040;2023-04-16T04:52:03;50.72;;;21.98;;
52530;SDS011;38441;52.894;6.040;2023-04-16T04:54:30;41.70;;;21.13;;
52530;SDS011;38441;52.894;6.040;2023-04-16T04:56:56;45.60;;;21.35;;
52530;SDS011;38441;52.894;6.040;2023-04-16T04:59:22;48.22;;;22.17;;
52530;SDS011;38441;52.894;6.040;2023-04-16T05:01:49;54.22;;;21.83;;
52530;SDS011;38441;52.894;6.040;2023-04-16T05:04:15;47.70;;;22.42;;
52530;SDS011;38441;52.894;6.040;2023-04-16T05:06:41;47.47;;;20.45;;
52530;SDS011;38441;52.894;6.040;2023-04-16T05:09:07;42.30;;;19.45;;
52530;SDS011;38441;52.894;6.040;2023-04-16T05:11:36;47.65;;;21.52;;
52530;SDS011;38441;52.894;6.040;2023-04-16T05:14:03;47.17;;;20.90;;
52530;SDS011;38441;52.894;6.040;2023-04-16T05:16:29;43.10;;;20.55;;
52530;SDS011;38441;52.894;6.040;2023-04-16T05:18:54;53.40;;;20.90;;
52530;SDS011;38441;52.894;6.040;2023-04-16T05:21:21;44.63;;;19.70;;
52530;SDS011;38441;52.894;6.040;2023-04-16T05:23:47;49.10;;;20.65;;
52530;SDS011;38441;52.894;6.040;2023-04-16T05:26:13;50.80;;;21.40;;
52530;SDS011;38441;52.894;6.040;2023-04-16T05:28:39;57.17;;;22.83;;
52530;SDS011;38441;52.894;6.040;2023-04-16T05:31:05;53.95;;;22.15;;
52530;SDS011;38441;52.894;6.040;2023-04-16T05:33:30;55.55;;;21.88;;
52530;SDS011;38441;52.894;6.040;2023-04-16T05:35:56;52.30;;;22.20;;
52530;SDS011;38441;52.894;6.040;2023-04-16T05:38:22;52.67;;;23.50;;
52530;SDS011;38441;52.894;6.040;2023-04-16T05:40:47;49.58;;;22.27;;
52530;SDS011;38441;52.894;6.040;2023-04-16T05:43:14;51.60;;;23.17;;
52530;SDS011;38441;52.894;6.040;2023-04-16T05:45:40;50.05;;;21.55;;
52530;SDS011;38441;52.894;6.040;2023-04-16T05:48:06;48.33;;;20.77;;
52530;SDS011;38441;52.894;6.040;2023-04-16T05:50:35;48.08;;;20.60;;
52530;SDS011;38441;52.894;6.040;2023-04-16T05:53:03;50.40;;;19.58;;
52530;SDS011;38441;52.894;6.040;2023-04-16T05:55:30;40.90;;;18.27;;
52530;SDS011;38441;52.894;6.040;2023-04-16T05:57:56;40.55;;;19.35;;
52530;SDS011;38441;52.894;6.040;2023-04-16T06:00:22;43.20;;;19.75;;
52530;SDS011;38441;52.894;6.040;2023-04-16T06:02:47;40.50;;;18.08;;
52530;SDS011;38441;52.894;6.040;2023-04-16T06:05:13;48.28;;;18.70;;
52530;SDS011;38441;52.894;6.040;2023-04-16T06:07:39;47.17;;;18.70;;
52530;SDS011;38441;52.894;6.040;2023-04-16T06:10:05;42.47;;;19.33;;
52530;SDS011;38441;52.894;6.040;2023-04-16T06:12:31;43.72;;;20.27;;
52530;SDS011;38441;52.894;6.040;2023-04-16T06:14:56;39.78;;;18.90;;
52530;SDS011;38441;52.894;6.040;2023-04-16T06:17:22;49.33;;;19.55;;
52530;SDS011;38441;52.894;6.040;2023-04-16T06:19:48;48.55;;;20.58;;
52530;SDS011;38441;52.894;6.040;2023-04-16T06:22:14;44.47;;;19.45;;
52530;SDS011;38441;52.894;6.040;2023-04-16T06:24:40;42.47;;;20.23;;
52530;SDS011;38441;52.894;6.040;2023-04-16T06:27:06;49.28;;;20.27;;
52530;SDS011;38441;52.894;6.040;2023-04-16T06:29:31;45.67;;;20.23;;
52530;SDS011;38441;52.894;6.040;2023-04-16T06:31:57;51.15;;;19.85;;
52530;SDS011;38441;52.894;6.040;2023-04-16T06:34:22;39.85;;;19.40;;
52530;SDS011;38441;52.894;6.040;2023-04-16T06:36:49;49.42;;;20.35;;
52530;SDS011;38441;52.894;6.040;2023-04-16T06:39:14;50.63;;;20.10;;
52530;SDS011;38441;52.894;6.040;2023-04-16T06:41:40;42.75;;;18.05;;
52530;SDS011;38441;52.894;6.040;2023-04-16T06:44:06;42.75;;;18.80;;
52530;SDS011;38441;52.894;6.040;2023-04-16T06:46:31;44.50;;;18.55;;
52530;SDS011;38441;52.894;6.040;2023-04-16T06:48:57;43.42;;;18.70;;
52530;SDS011;38441;52.894;6.040;2023-04-16T06:51:23;41.13;;;19.50;;
52530;SDS011;38441;52.894;6.040;2023-04-16T06:53:50;45.92;;;19.40;;
52530;SDS011;38441;52.894;6.040;2023-04-16T06:56:16;41.67;;;17.58;;
52530;SDS011;38441;52.894;6.040;2023-04-16T06:58:42;41.88;;;17.33;;
52530;SDS011;38441;52.894;6.040;2023-04-16T07:01:08;106.47;;;58.83;;
52530;SDS011;38441;52.894;6.040;2023-04-16T07:03:34;43.15;;;19.65;;
52530;SDS011;38441;52.894;6.040;2023-04-16T07:06:00;45.80;;;21.77;;
52530;SDS011;38441;52.894;6.040;2023-04-16T07:08:26;45.53;;;17.77;;
52530;SDS011;38441;52.894;6.040;2023-04-16T07:10:52;48.95;;;20.40;;
52530;SDS011;38441;52.894;6.040;2023-04-16T07:13:19;40.88;;;17.98;;
52530;SDS011;38441;52.894;6.040;2023-04-16T07:15:46;37.60;;;17.42;;
52530;SDS011;38441;52.894;6.040;2023-04-16T07:18:12;41.22;;;19.80;;
52530;SDS011;38441;52.894;6.040;2023-04-16T07:20:37;41.65;;;16.27;;
52530;SDS011;38441;52.894;6.040;2023-04-16T07:23:03;42.78;;;18.95;;
52530;SDS011;38441;52.894;6.040;2023-04-16T07:25:29;50.03;;;18.65;;
52530;SDS011;38441;52.894;6.040;2023-04-16T07:27:55;48.22;;;20.40;;
52530;SDS011;38441;52.894;6.040;2023-04-16T07:30:20;47.00;;;21.15;;
52530;SDS011;38441;52.894;6.040;2023-04-16T07:32:46;44.65;;;20.52;;
52530;SDS011;38441;52.894;6.040;2023-04-16T07:35:12;47.17;;;19.70;;
52530;SDS011;38441;52.894;6.040;2023-04-16T07:37:38;46.55;;;19.50;;
52530;SDS011;38441;52.894;6.040;2023-04-16T07:40:04;46.33;;;20.10;;
52530;SDS011;38441;52.894;6.040;2023-04-16T07:42:30;38.03;;;17.17;;
52530;SDS011;38441;52.894;6.040;2023-04-16T07:44:55;51.35;;;20.95;;
52530;SDS011;38441;52.894;6.040;2023-04-16T07:47:21;44.75;;;17.65;;
52530;SDS011;38441;52.894;6.040;2023-04-16T07:49:50;80.68;;;39.67;;
52530;SDS011;38441;52.894;6.040;2023-04-16T07:52:16;55.10;;;21.55;;
52530;SDS011;38441;52.894;6.040;2023-04-16T07:54:42;52.65;;;25.65;;
52530;SDS011;38441;52.894;6.040;2023-04-16T07:57:08;42.47;;;19.50;;
52530;SDS011;38441;52.894;6.040;2023-04-16T07:59:35;38.92;;;18.33;;
52530;SDS011;38441;52.894;6.040;2023-04-16T08:02:01;44.42;;;20.17;;
52530;SDS011;38441;52.894;6.040;2023-04-16T08:04:26;56.13;;;26.35;;
52530;SDS011;38441;52.894;6.040;2023-04-16T08:06:52;41.30;;;19.50;;
52530;SDS011;38441;52.894;6.040;2023-04-16T08:09:18;59.60;;;27.20;;
52530;SDS011;38441;52.894;6.040;2023-04-16T08:11:45;37.47;;;18.85;;
52530;SDS011;38441;52.894;6.040;2023-04-16T08:14:13;46.95;;;21.40;;
52530;SDS011;38441;52.894;6.040;2023-04-16T08:16:39;61.35;;;31.08;;
52530;SDS011;38441;52.894;6.040;2023-04-16T08:19:05;37.42;;;18.40;;
52530;SDS011;38441;52.894;6.040;2023-04-16T08:21:32;55.45;;;22.95;;
52530;SDS011;38441;52.894;6.040;2023-04-16T08:23:58;47.55;;;23.00;;
52530;SDS011;38441;52.894;6.040;2023-04-16T08:26:23;50.40;;;20.83;;
52530;SDS011;38441;52.894;6.040;2023-04-16T08:28:49;48.95;;;19.88;;
52530;SDS011;38441;52.894;6.040;2023-04-16T08:31:15;61.08;;;26.33;;
52530;SDS011;38441;52.894;6.040;2023-04-16T08:33:40;51.15;;;24.75;;
52530;SDS011;38441;52.894;6.040;2023-04-16T08:36:06;47.88;;;19.60;;
52530;SDS011;38441;52.894;6.040;2023-04-16T08:38:32;40.55;;;18.65;;
52530;SDS011;38441;52.894;6.040;2023-04-16T08:40:59;37.95;;;16.90;;
52530;SDS011;38441;52.894;6.040;2023-04-16T08:45:57;31.67;;;16.45;;
52530;SDS011;38441;52.894;6.040;2023-04-16T08:48:23;35.63;;;17.50;;
52530;SDS011;38441;52.894;6.040;2023-04-16T08:50:51;33.10;;;16.80;;
52530;SDS011;38441;52.894;6.040;2023-04-16T08:53:17;40.33;;;17.83;;
52530;SDS011;38441;52.894;6.040;2023-04-16T08:55:52;35.45;;;15.32;;
52530;SDS011;38441;52.894;6.040;2023-04-16T08:58:23;35.90;;;16.10;;
52530;SDS011;38441;52.894;6.040;2023-04-16T09:00:55;40.35;;;16.55;;
52530;SDS011;38441;52.894;6.040;2023-04-16T09:03:21;30.63;;;16.05;;
52530;SDS011;38441;52.894;6.040;2023-04-16T09:05:47;32.20;;;16.02;;
52530;SDS011;38441;52.894;6.040;2023-04-16T09:08:14;39.95;;;16.08;;
52530;SDS011;38441;52.894;6.040;2023-04-16T09:10:41;37.75;;;16.00;;
52530;SDS011;38441;52.894;6.040;2023-04-16T09:13:08;35.17;;;15.55;;
52530;SDS011;38441;52.894;6.040;2023-04-16T09:15:35;34.92;;;15.32;;
52530;SDS011;38441;52.894;6.040;2023-04-16T09:18:01;36.78;;;16.48;;
52530;SDS011;38441;52.894;6.040;2023-04-16T09:20:27;29.02;;;15.48;;
52530;SDS011;38441;52.894;6.040;2023-04-16T09:22:53;30.17;;;16.23;;
52530;SDS011;38441;52.894;6.040;2023-04-16T09:25:19;31.10;;;15.35;;
52530;SDS011;38441;52.894;6.040;2023-04-16T09:27:48;33.58;;;15.75;;
52530;SDS011;38441;52.894;6.040;2023-04-16T09:30:21;32.30;;;16.90;;
52530;SDS011;38441;52.894;6.040;2023-04-16T09:32:49;34.85;;;15.85;;
52530;SDS011;38441;52.894;6.040;2023-04-16T09:35:17;31.10;;;15.00;;
52530;SDS011;38441;52.894;6.040;2023-04-16T09:37:46;31.83;;;15.93;;
52530;SDS011;38441;52.894;6.040;2023-04-16T09:40:24;30.23;;;14.10;;
52530;SDS011;38441;52.894;6.040;2023-04-16T09:42:51;28.05;;;15.35;;
52530;SDS011;38441;52.894;6.040;2023-04-16T09:45:20;35.90;;;15.60;;
52530;SDS011;38441;52.894;6.040;2023-04-16T09:47:46;29.38;;;17.10;;
52530;SDS011;38441;52.894;6.040;2023-04-16T09:50:15;30.55;;;14.43;;
52530;SDS011;38441;52.894;6.040;2023-04-16T09:52:43;34.60;;;14.90;;
52530;SDS011;38441;52.894;6.040;2023-04-16T09:55:11;36.55;;;16.13;;
52530;SDS011;38441;52.894;6.040;2023-04-16T09:57:37;36.05;;;15.55;;
52530;SDS011;38441;52.894;6.040;2023-04-16T10:00:04;32.13;;;16.65;;
52530;SDS011;38441;52.894;6.040;2023-04-16T10:02:32;35.30;;;16.30;;
52530;SDS011;38441;52.894;6.040;2023-04-16T10:05:00;35.00;;;15.63;;
52530;SDS011;38441;52.894;6.040;2023-04-16T10:07:32;31.60;;;15.68;;
52530;SDS011;38441;52.894;6.040;2023-04-16T10:09:59;35.67;;;18.77;;
52530;SDS011;38441;52.894;6.040;2023-04-16T10:12:25;31.80;;;14.98;;
52530;SDS011;38441;52.894;6.040;2023-04-16T10:14:52;33.30;;;14.93;;
52530;SDS011;38441;52.894;6.040;2023-04-16T10:17:18;31.80;;;14.68;;
52530;SDS011;38441;52.894;6.040;2023-04-16T10:19:48;33.35;;;15.27;;
52530;SDS011;38441;52.894;6.040;2023-04-16T10:22:15;28.95;;;15.55;;
52530;SDS011;38441;52.894;6.040;2023-04-16T10:24:40;33.00;;;16.50;;
52530;SDS011;38441;52.894;6.040;2023-04-16T10:27:07;36.28;;;19.25;;
52530;SDS011;38441;52.894;6.040;2023-04-16T10:29:33;42.03;;;24.60;;
52530;SDS011;38441;52.894;6.040;2023-04-16T10:32:02;44.38;;;23.70;;
52530;SDS011;38441;52.894;6.040;2023-04-16T10:34:32;41.60;;;22.33;;
52530;SDS011;38441;52.894;6.040;2023-04-16T10:36:59;45.55;;;21.33;;
52530;SDS011;38441;52.894;6.040;2023-04-16T10:39:26;33.42;;;19.02;;
52530;SDS011;38441;52.894;6.040;2023-04-16T10:42:06;29.67;;;16.60;;
52530;SDS011;38441;52.894;6.040;2023-04-16T10:44:36;25.17;;;14.63;;
52530;SDS011;38441;52.894;6.040;2023-04-16T10:47:10;34.00;;;14.43;;
52530;SDS011;38441;52.894;6.040;2023-04-16T10:49:36;24.70;;;14.18;;
52530;SDS011;38441;52.894;6.040;2023-04-16T10:52:09;24.88;;;13.77;;
52530;SDS011;38441;52.894;6.040;2023-04-16T10:54:38;27.65;;;14.52;;
52530;SDS011;38441;52.894;6.040;2023-04-16T12:15:54;25.98;;;13.88;;
52530;SDS011;38441;52.894;6.040;2023-04-16T12:18:22;32.20;;;14.77;;
52530;SDS011;38441;52.894;6.040;2023-04-16T12:20:50;23.75;;;13.43;;
52530;SDS011;38441;52.894;6.040;2023-04-16T12:23:26;25.48;;;13.55;;
52530;SDS011;38441;52.894;6.040;2023-04-16T12:25:53;23.33;;;14.32;;
52530;SDS011;38441;52.894;6.040;2023-04-16T12:28:26;27.48;;;14.40;;
52530;SDS011;38441;52.894;6.040;2023-04-16T12:30:54;28.20;;;13.07;;
52530;SDS011;38441;52.894;6.040;2023-04-16T12:33:22;25.77;;;13.43;;
52530;SDS011;38441;52.894;6.040;2023-04-16T12:35:48;21.77;;;13.57;;
52530;SDS011;38441;52.894;6.040;2023-04-16T12:38:14;24.08;;;12.40;;
52530;SDS011;38441;52.894;6.040;2023-04-16T12:40:44;23.73;;;11.88;;
52530;SDS011;38441;52.894;6.040;2023-04-16T12:43:19;26.35;;;13.98;;
52530;SDS011;38441;52.894;6.040;2023-04-16T12:45:45;24.63;;;13.45;;
52530;SDS011;38441;52.894;6.040;2023-04-16T12:48:11;27.98;;;13.60;;
52530;SDS011;38441;52.894;6.040;2023-04-16T16:46:24;19.10;;;14.32;;
52530;SDS011;38441;52.894;6.040;2023-04-16T16:52:54;21.17;;;14.50;;
52530;SDS011;38441;52.894;6.040;2023-04-16T19:50:18;28.95;;;16.92;;
52530;SDS011;38441;52.894;6.040;2023-04-16T19:52:44;30.02;;;18.27;;
52530;SDS011;38441;52.894;6.040;2023-04-16T19:55:18;26.77;;;15.48;;
52530;SDS011;38441;52.894;6.040;2023-04-16T19:57:46;28.33;;;17.58;;
52530;SDS011;38441;52.894;6.040;2023-04-16T20:00:16;28.70;;;17.75;;
52530;SDS011;38441;52.894;6.040;2023-04-16T20:02:45;27.35;;;17.27;;
52530;SDS011;38441;52.894;6.040;2023-04-16T20:05:14;26.42;;;17.20;;
52530;SDS011;38441;52.894;6.040;2023-04-16T20:07:40;27.95;;;17.02;;
52530;SDS011;38441;52.894;6.040;2023-04-16T20:10:06;28.58;;;17.42;;
52530;SDS011;38441;52.894;6.040;2023-04-16T20:12:32;29.35;;;18.10;;
52530;SDS011;38441;52.894;6.040;2023-04-16T20:14:58;34.63;;;19.73;;
52530;SDS011;38441;52.894;6.040;2023-04-16T20:17:24;30.02;;;17.55;;
52530;SDS011;38441;52.894;6.040;2023-04-16T20:19:50;31.80;;;18.95;;
52530;SDS011;38441;52.894;6.040;2023-04-16T20:22:16;27.73;;;17.15;;
52530;SDS011;38441;52.894;6.040;2023-04-16T20:24:43;24.73;;;16.02;;
52530;SDS011;38441;52.894;6.040;2023-04-16T20:27:11;30.10;;;18.15;;
52530;SDS011;38441;52.894;6.040;2023-04-16T20:29:38;27.50;;;16.05;;
52530;SDS011;38441;52.894;6.040;2023-04-16T20:32:04;29.80;;;17.33;;
52530;SDS011;38441;52.894;6.040;2023-04-16T20:34:31;25.83;;;15.80;;
52530;SDS011;38441;52.894;6.040;2023-04-16T20:36:57;26.67;;;16.27;;
52530;SDS011;38441;52.894;6.040;2023-04-16T20:39:23;24.70;;;15.70;;
52530;SDS011;38441;52.894;6.040;2023-04-16T20:41:50;25.85;;;15.95;;
52530;SDS011;38441;52.894;6.040;2023-04-16T20:44:21;23.90;;;14.25;;
52530;SDS011;38441;52.894;6.040;2023-04-16T20:47:00;24.30;;;15.07;;
52530;SDS011;38441;52.894;6.040;2023-04-16T20:49:26;23.33;;;14.20;;
52530;SDS011;38441;52.894;6.040;2023-04-16T20:51:52;23.42;;;14.68;;
52530;SDS011;38441;52.894;6.040;2023-04-16T20:54:18;23.73;;;14.63;;
52530;SDS011;38441;52.894;6.040;2023-04-16T20:56:44;22.60;;;14.82;;
52530;SDS011;38441;52.894;6.040;2023-04-16T20:59:10;26.73;;;16.05;;
52530;SDS011;38441;52.894;6.040;2023-04-16T21:01:37;28.85;;;16.73;;
52530;SDS011;38441;52.894;6.040;2023-04-16T21:04:03;28.08;;;15.50;;
52530;SDS011;38441;52.894;6.040;2023-04-16T21:06:30;28.05;;;15.43;;
52530;SDS011;38441;52.894;6.040;2023-04-16T21:08:57;27.02;;;17.13;;
52530;SDS011;38441;52.894;6.040;2023-04-16T21:11:23;28.27;;;16.30;;
52530;SDS011;38441;52.894;6.040;2023-04-16T21:13:50;26.88;;;15.85;;
52530;SDS011;38441;52.894;6.040;2023-04-16T21:16:16;27.10;;;16.73;;
52530;SDS011;38441;52.894;6.040;2023-04-16T21:18:42;28.25;;;16.77;;
52530;SDS011;38441;52.894;6.040;2023-04-16T21:21:08;25.08;;;16.95;;
52530;SDS011;38441;52.894;6.040;2023-04-16T21:23:34;27.80;;;17.45;;
52530;SDS011;38441;52.894;6.040;2023-04-16T21:26:00;29.48;;;17.42;;
52530;SDS011;38441;52.894;6.040;2023-04-16T21:28:26;26.60;;;16.40;;
52530;SDS011;38441;52.894;6.040;2023-04-16T21:30:53;24.15;;;14.93;;
52530;SDS011;38441;52.894;6.040;2023-04-16T21:33:19;23.45;;;15.05;;
52530;SDS011;38441;52.894;6.040;2023-04-16T21:35:52;21.80;;;14.48;;
52530;SDS011;38441;52.894;6.040;2023-04-16T21:38:18;23.60;;;14.38;;
52530;SDS011;38441;52.894;6.040;2023-04-16T21:40:45;20.67;;;14.10;;
52530;SDS011;38441;52.894;6.040;2023-04-16T21:43:14;27.13;;;15.07;;
52530;SDS011;38441;52.894;6.040;2023-04-16T21:45:41;21.33;;;14.52;;
52530;SDS011;38441;52.894;6.040;2023-04-16T21:48:07;21.48;;;13.60;;
52530;SDS011;38441;52.894;6.040;2023-04-16T21:50:33;22.48;;;14.50;;
52530;SDS011;38441;52.894;6.040;2023-04-16T21:53:00;24.30;;;14.93;;
52530;SDS011;38441;52.894;6.040;2023-04-16T21:55:32;24.88;;;14.60;;
52530;SDS011;38441;52.894;6.040;2023-04-16T21:58:02;24.95;;;16.23;;
52530;SDS011;38441;52.894;6.040;2023-04-16T22:00:28;21.58;;;13.38;;
52530;SDS011;38441;52.894;6.040;2023-04-16T22:02:54;22.73;;;14.75;;
52530;SDS011;38441;52.894;6.040;2023-04-16T22:05:22;19.55;;;13.07;;
52530;SDS011;38441;52.894;6.040;2023-04-16T22:07:48;21.90;;;13.27;;
52530;SDS011;38441;52.894;6.040;2023-04-16T22:10:14;20.02;;;12.77;;
52530;SDS011;38441;52.894;6.040;2023-04-16T22:12:41;22.42;;;13.65;;
52530;SDS011;38441;52.894;6.040;2023-04-16T22:15:08;18.90;;;12.00;;
52530;SDS011;38441;52.894;6.040;2023-04-16T22:17:35;16.67;;;10.93;;
52530;SDS011;38441;52.894;6.040;2023-04-16T22:20:01;17.70;;;11.32;;
52530;SDS011;38441;52.894;6.040;2023-04-16T22:22:31;20.48;;;11.68;;
52530;SDS011;38441;52.894;6.040;2023-04-16T22:24:57;19.35;;;12.93;;
52530;SDS011;38441;52.894;6.040;2023-04-16T22:27:23;19.45;;;12.32;;
52530;SDS011;38441;52.894;6.040;2023-04-16T22:29:49;17.98;;;11.98;;
52530;SDS011;38441;52.894;6.040;2023-04-16T22:32:15;16.60;;;11.68;;
52530;SDS011;38441;52.894;6.040;2023-04-16T22:34:41;19.85;;;12.40;;